createdAt,value
2019-04-18T00:08:12.875Z,20.0
2019-04-18T00:25:00.505Z,20.0
2019-04-18T00:41:49.717Z,20.0
2019-04-18T00:58:33.874Z,20.0
2019-04-18T01:15:23.510Z,20.0
2019-04-18T01:32:07.688Z,19.7
2019-04-18T01:48:54.734Z,19.7
2019-04-18T02:05:41.537Z,19.7
2019-04-18T02:22:28.362Z,19.7
2019-04-18T02:39:15.091Z,19.7
2019-04-18T02:56:02.219Z,19.7
2019-04-18T03:12:48.651Z,19.7
2019-04-18T03:29:35.169Z,19.7
2019-04-18T03:46:25.595Z,19.7
2019-04-18T04:03:12.439Z,19.4
2019-04-18T04:19:54.872Z,19.4
2019-04-18T04:36:41.440Z,19.4
2019-04-18T04:53:31.859Z,19.4
2019-04-18T05:10:15.570Z,19.4
2019-04-18T05:27:01.247Z,19.7
2019-04-18T05:43:47.784Z,20.0
2019-04-18T06:00:35.132Z,20.0
2019-04-18T06:17:22.605Z,20.3
2019-04-18T06:34:12.588Z,20.6
2019-04-18T06:50:58.342Z,20.6
2019-04-18T07:07:45.898Z,20.6
2019-04-18T07:24:33.679Z,20.6
2019-04-18T07:41:23.202Z,20.6
2019-04-18T07:58:10.240Z,20.6
2019-04-18T08:14:57.359Z,21.0
2019-04-18T08:31:45.620Z,21.3
2019-04-18T08:48:34.201Z,21.3
2019-04-18T09:05:30.438Z,21.6
2019-04-18T09:22:13.625Z,21.6
2019-04-18T09:39:02.228Z,21.9
2019-04-18T09:55:51.724Z,21.9
2019-04-18T10:12:40.456Z,22.2
2019-04-18T10:29:29.297Z,22.2
2019-04-18T10:34:32.439Z,22.2
2019-04-18T10:51:22.306Z,22.2
2019-04-18T11:08:12.668Z,22.6
2019-04-18T11:25:02.378Z,22.6
2019-04-18T11:41:54.309Z,22.6
2019-04-18T11:58:44.211Z,22.9
2019-04-18T12:15:32.865Z,22.9
2019-04-18T12:18:55.058Z,22.9
2019-04-18T12:20:36.854Z,22.9
2019-04-18T12:34:04.547Z,22.9
2019-04-18T12:49:13.840Z,22.9
2019-04-18T13:02:42.266Z,22.6
2019-04-18T13:19:32.278Z,22.6
2019-04-18T13:36:22.422Z,22.6
2019-04-18T13:53:12.616Z,22.6
2019-04-18T14:03:18.762Z,22.6
2019-04-18T14:13:24.748Z,22.6
2019-04-18T14:30:14.822Z,22.6
2019-04-18T14:47:05.061Z,22.6
2019-04-18T15:03:55.613Z,22.6
2019-04-18T15:20:45.018Z,22.6
2019-04-18T15:37:34.980Z,22.6
2019-04-18T15:54:24.932Z,22.2
2019-04-18T16:11:14.676Z,22.2
2019-04-18T16:28:04.423Z,22.2
2019-04-18T16:44:53.522Z,21.9
2019-04-18T17:01:42.622Z,21.6
2019-04-18T17:10:07.189Z,21.9
2019-04-18T17:26:56.600Z,21.9
2019-04-18T17:43:53.044Z,21.9
2019-04-18T18:00:39.131Z,21.9
2019-04-18T18:17:24.838Z,21.6
2019-04-18T18:34:17.665Z,21.6
2019-04-18T18:51:03.807Z,21.6
2019-04-18T19:08:09.281Z,21.3
2019-04-18T19:24:48.322Z,21.3
2019-04-18T19:41:39.635Z,21.3
2019-04-18T19:58:19.338Z,21.3
2019-04-18T20:15:08.391Z,21.3
2019-04-18T20:31:58.393Z,21.0
2019-04-18T20:49:06.976Z,21.0
2019-04-18T21:05:37.547Z,21.0
2019-04-18T21:22:21.234Z,21.0
2019-04-18T21:39:13.029Z,21.0
2019-04-18T21:56:00.203Z,20.6
2019-04-18T22:12:48.545Z,20.6
2019-04-18T22:29:34.018Z,20.6
2019-04-18T22:46:23.683Z,20.6
2019-04-18T23:03:08.488Z,20.6
2019-04-18T23:19:56.304Z,20.6
2019-04-18T23:36:47.606Z,20.6
2019-04-18T23:53:33.331Z,20.6
